createdAt,value
2022-08-02T00:05:18.180Z,19.03
2022-08-02T00:15:21.210Z,18.98
2022-08-02T00:25:24.003Z,19.02
2022-08-02T00:35:29.511Z,19.20
2022-08-02T00:46:02.173Z,19.21
2022-08-02T00:55:55.104Z,19.37
2022-08-02T01:06:10.972Z,19.28
2022-08-02T01:16:26.697Z,19.30
2022-08-02T01:26:43.710Z,19.21
2022-08-02T01:37:02.847Z,19.12
2022-08-02T01:47:09.572Z,19.09
2022-08-02T01:57:14.929Z,18.87
2022-08-02T02:07:20.723Z,18.97
2022-08-02T02:18:10.445Z,19.08
2022-08-02T02:28:30.438Z,19.18
2022-08-02T02:38:34.373Z,19.07
2022-08-02T02:48:38.090Z,18.83
2022-08-02T02:58:41.115Z,18.73
2022-08-02T03:08:44.530Z,18.34
2022-08-02T03:18:48.030Z,18.35
2022-08-02T03:28:53.006Z,18.28
2022-08-02T03:38:56.005Z,18.37
2022-08-02T03:48:59.086Z,18.84
2022-08-02T03:59:12.011Z,19.15
2022-08-02T04:09:14.856Z,19.61
2022-08-02T04:19:22.254Z,20.00
2022-08-02T04:29:25.657Z,20.27
2022-08-02T04:39:29.061Z,20.57
2022-08-02T04:49:32.486Z,20.77
2022-08-02T04:59:35.261Z,20.99
2022-08-02T05:09:37.882Z,21.52
2022-08-02T05:19:40.339Z,21.98
2022-08-02T05:29:51.222Z,22.03
2022-08-02T05:39:56.783Z,22.67
2022-08-02T05:50:00.131Z,22.69
2022-08-02T06:00:06.421Z,22.72
2022-08-02T06:10:15.747Z,22.97
2022-08-02T06:20:20.309Z,23.83
2022-08-02T06:30:23.011Z,24.01
2022-08-02T06:40:51.586Z,24.85
2022-08-02T06:50:54.329Z,24.97
2022-08-02T07:00:57.930Z,25.14
2022-08-02T07:11:04.390Z,26.15
2022-08-02T07:21:10.971Z,26.96
2022-08-02T07:31:16.734Z,26.84
2022-08-02T07:41:21.627Z,27.97
2022-08-02T07:51:33.643Z,27.90
2022-08-02T08:01:37.588Z,29.09
2022-08-02T08:11:43.045Z,29.01
2022-08-02T08:21:45.921Z,29.66
2022-08-02T08:31:48.959Z,30.16
2022-08-02T08:41:51.984Z,30.03
2022-08-02T08:51:56.436Z,31.03
2022-08-02T09:01:59.967Z,31.25
2022-08-02T09:12:26.162Z,31.90
2022-08-02T09:22:28.866Z,32.22
2022-08-02T09:32:44.144Z,29.78
2022-08-02T09:43:02.426Z,28.44
2022-08-02T09:53:05.191Z,28.37
2022-08-02T10:03:09.388Z,28.51
2022-08-02T10:13:20.067Z,28.73
2022-08-02T10:23:27.713Z,28.59
2022-08-02T10:33:37.841Z,28.75
2022-08-02T10:43:43.283Z,28.99
2022-08-02T10:54:08.732Z,28.85
2022-08-02T11:04:11.245Z,28.04
2022-08-02T11:14:14.866Z,27.66
2022-08-02T11:24:28.089Z,27.25
2022-08-02T11:34:37.374Z,27.53
2022-08-02T11:44:42.620Z,28.20
2022-08-02T11:54:45.107Z,28.90
2022-08-02T12:05:01.962Z,29.29
2022-08-02T12:15:05.041Z,30.24
2022-08-02T12:25:34.399Z,30.81
2022-08-02T12:35:37.935Z,31.85
2022-08-02T12:46:01.752Z,30.94
2022-08-02T12:56:06.012Z,32.17
2022-08-02T13:06:39.539Z,32.55
2022-08-02T13:16:33.629Z,32.05
2022-08-02T13:26:36.202Z,32.43
2022-08-02T13:36:39.004Z,31.58
2022-08-02T13:46:45.031Z,31.48
2022-08-02T13:56:49.061Z,31.41
2022-08-02T14:06:52.155Z,31.26
2022-08-02T14:16:54.774Z,32.05
2022-08-02T14:26:57.997Z,32.37
2022-08-02T14:37:02.091Z,32.34
2022-08-02T14:47:06.152Z,31.78
2022-08-02T14:57:13.116Z,31.70
2022-08-02T15:07:15.889Z,31.49
2022-08-02T15:17:21.945Z,30.68
2022-08-02T15:27:26.004Z,30.86
2022-08-02T15:37:30.927Z,28.98
2022-08-02T15:47:35.697Z,28.31
2022-08-02T15:57:41.490Z,27.96
2022-08-02T16:07:45.411Z,27.67
2022-08-02T16:17:54.275Z,27.56
2022-08-02T16:28:07.231Z,27.47
2022-08-02T16:38:10.792Z,27.14
2022-08-02T16:48:13.476Z,26.81
2022-08-02T16:58:16.152Z,26.59
2022-08-02T17:08:19.774Z,26.30
2022-08-02T17:18:26.416Z,26.16
2022-08-02T17:28:31.018Z,26.00
2022-08-02T17:38:50.295Z,26.04
2022-08-02T17:49:17.306Z,25.72
2022-08-02T17:59:30.851Z,25.61
2022-08-02T18:09:44.778Z,25.24
2022-08-02T18:19:56.393Z,24.97
2022-08-02T18:30:04.758Z,24.72
2022-08-02T18:40:08.084Z,24.55
2022-08-02T18:50:10.965Z,24.26
2022-08-02T19:00:15.181Z,24.00
2022-08-02T19:10:22.918Z,23.81
2022-08-02T19:20:29.079Z,24.00
2022-08-02T19:30:34.525Z,23.68
2022-08-02T19:40:38.940Z,23.42
2022-08-02T19:50:44.019Z,23.23
2022-08-02T20:00:51.467Z,23.17
2022-08-02T20:10:55.782Z,22.92
2022-08-02T20:20:58.492Z,22.77
2022-08-02T20:31:07.028Z,22.76
2022-08-02T20:41:11.515Z,23.07
2022-08-02T20:51:33.542Z,23.03
2022-08-02T21:01:37.098Z,23.10
2022-08-02T21:11:39.645Z,22.89
2022-08-02T21:21:53.530Z,22.70
2022-08-02T21:31:55.854Z,22.37
2022-08-02T21:41:58.207Z,22.26
2022-08-02T21:52:01.675Z,22.18
2022-08-02T22:02:04.117Z,21.94
2022-08-02T22:12:16.992Z,21.58
2022-08-02T22:22:27.955Z,21.28
2022-08-02T22:32:49.517Z,21.22
2022-08-02T22:42:53.832Z,20.83
2022-08-02T22:52:58.203Z,20.69
2022-08-02T23:03:00.548Z,20.29
2022-08-02T23:13:02.968Z,20.26
2022-08-02T23:23:11.646Z,20.41
2022-08-02T23:33:14.673Z,20.37
2022-08-02T23:43:18.194Z,20.42
2022-08-02T23:53:20.454Z,20.41
